aviador You're here:

KGDP Decoded Metar

GUADALUPE PASS in TX, USA
Report Time2018-02-21 21:07:00
UTC Time2018-02-21 21:16:22
Flight Rules mvfr MVFR
Wind070° at 30 kt
W.Rank070° ranks 6
Current wind is above 070° avg. (17.5)
Visibility4828 m
Phenomena:Haze
Clouds:N/A
Expected CloudBase > 5,600 ft AGL from Temp-Dew spread
CeilingNone
Temp05°C (ISA +1)
Dew Point-9°C (36% RH)
AAT-8.8°C
QNH1019 hPa
Density Alt5,522 ft
Elevation5,551 ft
Report Wrong Elevation
Raw Report
KGDP 212107Z AUTO 07030KT 3SM HZ CLR 05/M09 A3008 RMK AO2 PK WND
06035/2059 T00501094=

Extra information for KGDP:More info

Metar Taf Metar & Taf Last 4 Metars F.Rules Stats Wind Profile Meteogram Temp Stats Airport Information Weather charts Add Link Nearby VenuesMetar ALERT Operation Metar Decoded Social comments

AIRNAV info for KGDP